createdAt,value
2023-01-27T00:00:59.938Z,101617.91
2023-01-27T00:03:27.194Z,101617.13
2023-01-27T00:05:54.634Z,101614.47
2023-01-27T00:08:22.065Z,101610.28
2023-01-27T00:11:09.258Z,101619.84
2023-01-27T00:13:36.608Z,101614.44
2023-01-27T00:16:04.061Z,101612.75
2023-01-27T00:18:31.344Z,101612.81
2023-01-27T00:21:17.005Z,101612.88
2023-01-27T00:24:02.901Z,101617.25
2023-01-27T00:26:30.455Z,101614.38
2023-01-27T00:28:57.737Z,101610.91
2023-01-27T00:31:43.515Z,101615.19
2023-01-27T00:34:11.201Z,101611.59
2023-01-27T00:36:41.146Z,101617.91
2023-01-27T00:39:09.857Z,101610.16
2023-01-27T00:41:37.105Z,101605.00
2023-01-27T00:44:12.630Z,101603.25
2023-01-27T00:46:40.536Z,101610.09
2023-01-27T00:49:07.984Z,101608.13
2023-01-27T00:51:36.712Z,101615.81
2023-01-27T00:54:05.252Z,101622.03
2023-01-27T00:56:32.935Z,101622.19
2023-01-27T00:59:00.553Z,101618.75
2023-01-27T01:01:28.175Z,101617.94
2023-01-27T01:03:55.476Z,101625.78
2023-01-27T01:06:22.984Z,101624.00
2023-01-27T01:08:52.395Z,101629.31
2023-01-27T01:11:20.423Z,101626.75
2023-01-27T01:13:48.024Z,101627.44
2023-01-27T01:16:22.032Z,101631.81
2023-01-27T01:18:49.379Z,101633.44
2023-01-27T01:21:17.151Z,101633.56
2023-01-27T01:23:45.577Z,101634.44
2023-01-27T01:26:14.725Z,101630.09
2023-01-27T01:28:43.108Z,101625.72
2023-01-27T01:31:12.443Z,101631.66
2023-01-27T01:33:39.767Z,101639.31
2023-01-27T01:36:09.051Z,101634.88
2023-01-27T01:38:36.381Z,101635.00
2023-01-27T01:41:04.633Z,101633.50
2023-01-27T01:43:32.018Z,101640.53
2023-01-27T01:46:00.596Z,101636.41
2023-01-27T01:49:01.530Z,101634.31
2023-01-27T01:51:32.718Z,101634.38
2023-01-27T01:54:05.117Z,101641.50
2023-01-27T01:56:45.971Z,101639.69
2023-01-27T01:59:36.215Z,101643.75
2023-01-27T02:02:07.067Z,101646.97
2023-01-27T02:04:43.086Z,101653.03
2023-01-27T02:07:59.440Z,101653.06
2023-01-27T02:10:26.877Z,101651.03
2023-01-27T02:12:54.147Z,101651.19
2023-01-27T02:15:21.583Z,101645.41
2023-01-27T02:17:49.331Z,101643.63
2023-01-27T02:20:28.051Z,101638.63
2023-01-27T02:23:04.270Z,101639.56
2023-01-27T02:25:37.402Z,101643.00
2023-01-27T02:28:06.749Z,101645.59
2023-01-27T02:30:34.080Z,101640.53
2023-01-27T02:33:01.775Z,101643.63
2023-01-27T02:35:36.824Z,101645.34
2023-01-27T02:38:05.413Z,101646.28
2023-01-27T02:40:33.642Z,101650.53
2023-01-27T02:43:01.259Z,101658.91
2023-01-27T02:45:29.121Z,101655.59
2023-01-27T02:47:56.379Z,101651.47
2023-01-27T02:50:23.819Z,101660.41
2023-01-27T02:52:51.076Z,101656.00
2023-01-27T02:55:18.568Z,101674.00
2023-01-27T02:57:45.815Z,101672.22
2023-01-27T03:00:13.939Z,101671.38
2023-01-27T03:02:41.293Z,101673.75
2023-01-27T03:05:08.715Z,101672.81
2023-01-27T03:07:35.962Z,101679.88
2023-01-27T03:10:03.410Z,101682.63
2023-01-27T03:12:30.628Z,101683.56
2023-01-27T03:15:16.735Z,101673.13
2023-01-27T03:18:02.621Z,101677.88
2023-01-27T03:20:31.260Z,101667.44
2023-01-27T03:22:58.596Z,101669.69
2023-01-27T03:25:25.906Z,101663.81
2023-01-27T03:27:53.178Z,101662.13
2023-01-27T03:30:20.427Z,101664.91
2023-01-27T03:32:47.764Z,101667.66
2023-01-27T03:35:16.315Z,101662.56
2023-01-27T03:38:02.603Z,101667.91
2023-01-27T03:40:48.437Z,101668.94
2023-01-27T03:43:34.315Z,101668.84
2023-01-27T03:46:18.444Z,101665.13
2023-01-27T03:48:50.256Z,101672.63
2023-01-27T03:51:18.760Z,101673.66
2023-01-27T03:53:46.102Z,101672.94
2023-01-27T03:56:13.409Z,101665.31
2023-01-27T03:58:40.860Z,101668.13
2023-01-27T04:01:16.215Z,101662.66
2023-01-27T04:04:02.059Z,101666.28
2023-01-27T04:06:49.841Z,101667.25
2023-01-27T04:09:28.361Z,101663.69
2023-01-27T04:11:59.685Z,101667.38
2023-01-27T04:14:33.740Z,101660.41
2023-01-27T04:17:03.926Z,101653.44
2023-01-27T04:19:31.550Z,101656.16
2023-01-27T04:21:59.448Z,101670.00
2023-01-27T04:24:26.973Z,101670.03
2023-01-27T04:27:08.921Z,101676.81
2023-01-27T04:29:43.395Z,101678.50
2023-01-27T04:32:11.881Z,101680.34
2023-01-27T04:34:39.601Z,101683.81
2023-01-27T04:37:08.040Z,101689.63
2023-01-27T04:39:35.540Z,101683.53
2023-01-27T04:42:04.429Z,101679.91
2023-01-27T04:44:31.835Z,101689.34
2023-01-27T04:46:59.128Z,101687.03
2023-01-27T04:49:27.201Z,101688.19
2023-01-27T04:51:54.969Z,101681.38
2023-01-27T04:54:22.208Z,101682.34
2023-01-27T04:57:00.483Z,101685.91
2023-01-27T04:59:28.408Z,101695.41
2023-01-27T05:01:55.918Z,101699.75
2023-01-27T05:04:23.295Z,101698.06
2023-01-27T05:06:50.841Z,101697.16
2023-01-27T05:09:18.303Z,101700.66
2023-01-27T05:11:45.706Z,101702.38
2023-01-27T05:14:14.176Z,101702.34
2023-01-27T05:16:43.717Z,101705.75
2023-01-27T05:19:11.196Z,101703.00
2023-01-27T05:21:38.462Z,101707.38
2023-01-27T05:24:07.970Z,101709.22
2023-01-27T05:26:35.476Z,101707.41
2023-01-27T05:29:02.729Z,101714.28
2023-01-27T05:31:33.895Z,101719.59
2023-01-27T05:34:05.366Z,101721.44
2023-01-27T05:36:32.638Z,101725.66
2023-01-27T05:39:01.224Z,101727.97
2023-01-27T05:41:33.361Z,101723.72
2023-01-27T05:44:00.715Z,101737.50
2023-01-27T05:46:30.326Z,101738.41
2023-01-27T05:49:00.407Z,101731.50
2023-01-27T05:51:30.947Z,101737.59
2023-01-27T05:53:58.276Z,101738.63
2023-01-27T05:56:28.419Z,101738.53
2023-01-27T05:58:58.419Z,101735.97
2023-01-27T06:01:27.902Z,101739.59
2023-01-27T06:03:55.228Z,101745.75
2023-01-27T06:06:24.660Z,101743.19
2023-01-27T06:08:52.318Z,101742.41
2023-01-27T06:11:20.639Z,101741.59
2023-01-27T06:13:48.713Z,101738.19
2023-01-27T06:16:18.259Z,101736.47
2023-01-27T06:18:46.233Z,101738.94
2023-01-27T06:21:18.046Z,101738.16
2023-01-27T06:23:45.259Z,101738.19
2023-01-27T06:26:17.637Z,101737.38
2023-01-27T06:28:45.125Z,101741.72
2023-01-27T06:31:15.216Z,101742.56
2023-01-27T06:33:42.863Z,101737.34
2023-01-27T06:36:12.672Z,101739.09
2023-01-27T06:38:40.352Z,101736.50
2023-01-27T06:41:07.896Z,101740.88
2023-01-27T06:43:35.786Z,101745.25
2023-01-27T06:46:05.681Z,101751.34
2023-01-27T06:48:33.446Z,101742.69
2023-01-27T06:51:01.021Z,101746.09
2023-01-27T06:53:28.244Z,101746.09
2023-01-27T06:55:57.165Z,101753.81
2023-01-27T06:58:24.823Z,101754.69
2023-01-27T07:00:52.723Z,101758.16
2023-01-27T07:03:20.269Z,101758.19
2023-01-27T07:05:47.576Z,101747.81
2023-01-27T07:08:14.946Z,101765.09
2023-01-27T07:10:43.391Z,101761.72
2023-01-27T07:13:12.842Z,101760.00
2023-01-27T07:15:40.823Z,101759.06
2023-01-27T07:18:09.552Z,101766.06
2023-01-27T07:20:36.891Z,101771.34
2023-01-27T07:23:05.718Z,101774.72
2023-01-27T07:25:36.393Z,101781.59
2023-01-27T07:28:04.210Z,101779.84
2023-01-27T07:30:31.879Z,101778.06
2023-01-27T07:33:10.287Z,101773.78
2023-01-27T07:35:38.543Z,101783.31
2023-01-27T07:38:06.873Z,101783.19
2023-01-27T07:40:34.780Z,101780.69
2023-01-27T07:43:03.256Z,101785.06
2023-01-27T07:45:30.921Z,101791.16
2023-01-27T07:48:08.076Z,101795.44
2023-01-27T07:50:36.221Z,101784.19
2023-01-27T07:53:05.044Z,101796.88
2023-01-27T07:55:35.819Z,101785.69
2023-01-27T07:58:03.100Z,101792.84
2023-01-27T08:00:30.425Z,101798.13
2023-01-27T08:02:58.718Z,101796.47
2023-01-27T08:05:27.125Z,101795.78
2023-01-27T08:07:57.119Z,101793.97
2023-01-27T08:10:25.805Z,101799.06
2023-01-27T08:12:53.231Z,101798.22
2023-01-27T08:15:20.718Z,101799.25
2023-01-27T08:17:58.469Z,101799.41
2023-01-27T08:20:27.501Z,101806.03
2023-01-27T08:22:55.067Z,101806.28
2023-01-27T08:25:23.089Z,101809.66
2023-01-27T08:27:52.089Z,101803.78
2023-01-27T08:30:20.236Z,101810.00
2023-01-27T08:32:47.954Z,101807.41
2023-01-27T08:35:15.587Z,101804.91
2023-01-27T08:37:42.931Z,101809.03
2023-01-27T08:40:11.202Z,101819.63
2023-01-27T08:42:38.650Z,101820.38
2023-01-27T08:45:06.295Z,101815.75
2023-01-27T08:47:33.549Z,101826.91
2023-01-27T08:50:00.821Z,101820.75
2023-01-27T08:52:30.749Z,101837.31
2023-01-27T08:54:58.554Z,101829.47
2023-01-27T08:57:26.038Z,101823.50
2023-01-27T08:59:53.286Z,101827.03
2023-01-27T09:02:22.561Z,101824.63
2023-01-27T09:04:51.533Z,101835.88
2023-01-27T09:07:19.256Z,101840.31
2023-01-27T09:09:51.276Z,101844.72
2023-01-27T09:12:23.221Z,101843.03
2023-01-27T09:14:50.512Z,101840.44
2023-01-27T09:17:19.660Z,101838.97
2023-01-27T09:19:48.072Z,101840.81
2023-01-27T09:22:15.348Z,101845.91
2023-01-27T09:24:42.716Z,101850.16
2023-01-27T09:27:10.434Z,101850.28
2023-01-27T09:29:37.801Z,101854.63
2023-01-27T09:32:05.667Z,101857.25
2023-01-27T09:34:32.917Z,101866.91
2023-01-27T09:37:09.097Z,101856.53
2023-01-27T09:39:51.444Z,101860.91
2023-01-27T09:42:40.267Z,101864.25
2023-01-27T09:45:36.385Z,101861.69
2023-01-27T09:48:07.500Z,101866.13
2023-01-27T09:50:45.087Z,101867.84
2023-01-27T09:53:29.106Z,101865.34
2023-01-27T09:56:12.456Z,101865.44
2023-01-27T09:58:54.768Z,101863.78
2023-01-27T10:01:43.309Z,101866.53
2023-01-27T10:04:39.626Z,101865.66
2023-01-27T10:07:34.822Z,101868.34
2023-01-27T10:10:31.991Z,101864.00
2023-01-27T10:13:13.230Z,101871.09
2023-01-27T10:16:03.373Z,101872.69
2023-01-27T10:18:50.972Z,101876.09
2023-01-27T10:21:46.292Z,101873.47
2023-01-27T10:24:48.355Z,101864.00
2023-01-27T10:27:23.575Z,101874.47
2023-01-27T10:29:58.951Z,101874.41
2023-01-27T10:32:45.082Z,101885.78
2023-01-27T10:35:20.868Z,101883.97
2023-01-27T10:37:53.119Z,101887.47
2023-01-27T10:40:36.273Z,101883.22
2023-01-27T10:43:08.693Z,101892.72
2023-01-27T10:45:55.622Z,101890.16
2023-01-27T10:48:28.212Z,101887.59
2023-01-27T10:51:02.498Z,101885.00
2023-01-27T10:53:44.307Z,101889.28
2023-01-27T10:56:24.758Z,101893.59
2023-01-27T10:59:22.803Z,101885.00
2023-01-27T11:01:53.943Z,101882.41
2023-01-27T11:05:03.942Z,101875.56
2023-01-27T11:07:32.887Z,101880.72
2023-01-27T11:10:09.075Z,101867.75
2023-01-27T11:12:39.389Z,101874.63
2023-01-27T11:15:24.404Z,101880.84
2023-01-27T11:18:02.104Z,101879.97
2023-01-27T11:20:35.541Z,101875.69
2023-01-27T11:23:28.208Z,101878.19
2023-01-27T11:26:28.152Z,101884.31
2023-01-27T11:29:25.607Z,101883.41
2023-01-27T11:32:17.476Z,101877.41
2023-01-27T11:34:57.391Z,101870.53
2023-01-27T11:37:31.915Z,101883.69
2023-01-27T11:39:59.195Z,101873.28
2023-01-27T11:42:35.019Z,101875.75
2023-01-27T11:45:02.699Z,101878.41
2023-01-27T11:47:40.946Z,101874.81
2023-01-27T11:50:13.611Z,101871.34
2023-01-27T11:52:41.213Z,101871.41
2023-01-27T11:55:14.716Z,101869.84
2023-01-27T11:57:54.205Z,101863.00
2023-01-27T12:00:29.319Z,101866.53
2023-01-27T12:03:06.652Z,101867.31
2023-01-27T12:05:49.259Z,101868.06
2023-01-27T12:08:46.452Z,101869.81
2023-01-27T12:11:28.928Z,101877.69
2023-01-27T12:14:00.327Z,101869.75
2023-01-27T12:16:51.293Z,101870.66
2023-01-27T12:19:27.810Z,101871.47
2023-01-27T12:21:58.034Z,101872.34
2023-01-27T12:24:34.788Z,101867.91
2023-01-27T12:27:03.068Z,101871.44
2023-01-27T12:29:57.037Z,101872.34
2023-01-27T12:32:42.588Z,101867.09
2023-01-27T12:35:31.297Z,101862.72
2023-01-27T12:38:04.823Z,101864.50
2023-01-27T12:40:33.235Z,101864.50
2023-01-27T12:43:13.604Z,101869.69
2023-01-27T12:45:41.654Z,101867.09
2023-01-27T12:48:15.921Z,101864.50
2023-01-27T12:50:54.943Z,101864.47
2023-01-27T12:53:23.358Z,101861.00
2023-01-27T12:56:00.448Z,101873.06
2023-01-27T12:58:31.939Z,101866.06
2023-01-27T13:01:01.659Z,101867.75
2023-01-27T13:03:29.906Z,101865.09
2023-01-27T13:05:59.257Z,101868.63
2023-01-27T13:08:27.226Z,101869.44
2023-01-27T13:10:57.820Z,101876.31
2023-01-27T13:13:27.385Z,101870.19
2023-01-27T13:16:07.948Z,101882.50
2023-01-27T13:18:38.979Z,101881.56
2023-01-27T13:21:19.678Z,101879.69
2023-01-27T13:23:49.102Z,101878.84
2023-01-27T13:26:23.989Z,101881.44
2023-01-27T13:28:54.318Z,101881.41
2023-01-27T13:31:44.578Z,101887.47
2023-01-27T13:34:27.837Z,101879.63
2023-01-27T13:37:07.185Z,101883.94
2023-01-27T13:39:54.972Z,101892.81
2023-01-27T13:42:40.259Z,101885.94
2023-01-27T13:45:36.901Z,101891.06
2023-01-27T13:48:18.895Z,101883.16
2023-01-27T13:51:08.758Z,101892.63
2023-01-27T13:53:36.534Z,101896.19
2023-01-27T13:56:15.944Z,101891.00
2023-01-27T13:58:59.865Z,101889.16
2023-01-27T14:01:48.061Z,101904.00
2023-01-27T14:04:36.663Z,101903.13
2023-01-27T14:07:13.126Z,101902.09
2023-01-27T14:10:05.192Z,101905.56
2023-01-27T14:12:41.802Z,101903.19
2023-01-27T14:15:28.103Z,101903.81
2023-01-27T14:18:08.374Z,101911.63
2023-01-27T14:21:05.577Z,101914.22
2023-01-27T14:23:51.247Z,101918.56
2023-01-27T14:26:30.517Z,101909.09
2023-01-27T14:29:31.242Z,101910.81
2023-01-27T14:32:20.347Z,101918.59
2023-01-27T14:35:00.193Z,101915.09
2023-01-27T14:38:26.098Z,101908.25
2023-01-27T14:41:24.860Z,101923.81
2023-01-27T14:44:01.286Z,101922.16
2023-01-27T14:46:59.279Z,101924.00
2023-01-27T14:49:52.426Z,101924.81
2023-01-27T14:52:44.345Z,101917.00
2023-01-27T14:55:32.145Z,101920.44
2023-01-27T14:58:22.622Z,101926.44
2023-01-27T15:01:16.247Z,101927.31
2023-01-27T15:03:43.498Z,101932.56
2023-01-27T15:06:25.780Z,101942.09
2023-01-27T15:09:02.075Z,101934.31
2023-01-27T15:11:36.789Z,101936.06
2023-01-27T15:14:06.981Z,101928.19
2023-01-27T15:16:39.713Z,101942.94
2023-01-27T15:19:45.581Z,101944.69
2023-01-27T15:22:44.420Z,101949.00
2023-01-27T15:25:33.519Z,101953.41
2023-01-27T15:28:02.150Z,101944.72
2023-01-27T15:30:33.351Z,101955.09
2023-01-27T15:33:00.789Z,101943.81
2023-01-27T15:35:36.755Z,101955.13
2023-01-27T15:38:09.760Z,101961.28
2023-01-27T15:40:59.070Z,101957.09
2023-01-27T15:43:29.669Z,101965.59
2023-01-27T15:45:58.356Z,101969.00
2023-01-27T15:48:33.833Z,101974.22
2023-01-27T15:51:06.817Z,101970.97
2023-01-27T15:53:41.247Z,101978.78
2023-01-27T15:56:09.800Z,101972.50
2023-01-27T15:58:50.806Z,101981.16
2023-01-27T16:01:28.030Z,101985.63
2023-01-27T16:04:11.468Z,101983.84
2023-01-27T16:06:47.274Z,101984.78
2023-01-27T16:09:26.171Z,101989.81
2023-01-27T16:12:27.057Z,101988.06
2023-01-27T16:15:13.433Z,101994.94
2023-01-27T16:18:07.996Z,101988.88
2023-01-27T16:20:44.227Z,101985.41
2023-01-27T16:23:19.279Z,101990.59
2023-01-27T16:26:06.867Z,101984.50
2023-01-27T16:28:35.289Z,101988.88
2023-01-27T16:31:18.909Z,101990.59
2023-01-27T16:33:55.412Z,101991.47
2023-01-27T16:36:28.035Z,101994.06
2023-01-27T16:38:57.916Z,101990.56
2023-01-27T16:41:37.907Z,101996.69
2023-01-27T16:44:18.153Z,102006.22
2023-01-27T16:46:51.351Z,101998.31
2023-01-27T16:49:28.759Z,102005.31
2023-01-27T16:51:57.289Z,102006.19
2023-01-27T16:54:32.019Z,102008.72
2023-01-27T16:56:59.427Z,102008.78
2023-01-27T16:59:28.597Z,102012.28
2023-01-27T17:02:01.882Z,102010.59
2023-01-27T17:04:32.091Z,102011.56
2023-01-27T17:07:13.416Z,102013.50
2023-01-27T17:09:42.397Z,102011.66
2023-01-27T17:12:32.029Z,102018.59
2023-01-27T17:15:00.458Z,102025.41
2023-01-27T17:17:29.647Z,102019.25
2023-01-27T17:20:03.899Z,102019.28
2023-01-27T17:22:40.252Z,102021.78
2023-01-27T17:25:32.328Z,102019.09
2023-01-27T17:28:01.192Z,102013.06
2023-01-27T17:30:41.914Z,102019.09
2023-01-27T17:33:19.416Z,102020.88
2023-01-27T17:35:56.021Z,102023.44
2023-01-27T17:38:27.937Z,102023.38
2023-01-27T17:40:55.921Z,102021.59
2023-01-27T17:43:30.930Z,102017.25
2023-01-27T17:46:16.667Z,102025.94
2023-01-27T17:48:50.848Z,102024.03
2023-01-27T17:51:23.617Z,102031.03
2023-01-27T17:53:52.210Z,102042.34
2023-01-27T17:56:27.289Z,102031.84
2023-01-27T17:59:03.368Z,102032.84
2023-01-27T18:01:31.277Z,102041.53
2023-01-27T18:03:58.904Z,102048.38
2023-01-27T18:06:29.915Z,102041.47
2023-01-27T18:08:59.738Z,102049.16
2023-01-27T18:11:32.108Z,102055.19
2023-01-27T18:14:08.847Z,102051.72
2023-01-27T18:16:36.437Z,102055.19
2023-01-27T18:19:23.728Z,102065.59
2023-01-27T18:22:12.477Z,102068.13
2023-01-27T18:24:40.755Z,102070.63
2023-01-27T18:27:22.596Z,102063.69
2023-01-27T18:29:54.194Z,102073.13
2023-01-27T18:32:24.160Z,102075.72
2023-01-27T18:34:59.304Z,102076.59
2023-01-27T18:37:36.159Z,102075.69
2023-01-27T18:40:26.552Z,102076.63
2023-01-27T18:42:54.608Z,102083.50
2023-01-27T18:45:22.052Z,102097.38
2023-01-27T18:47:52.091Z,102098.81
2023-01-27T18:50:22.301Z,102096.22
2023-01-27T18:52:50.793Z,102101.28
2023-01-27T18:55:26.805Z,102107.44
2023-01-27T18:57:58.806Z,102098.56
2023-01-27T19:00:35.984Z,102097.63
2023-01-27T19:03:03.923Z,102103.56
2023-01-27T19:05:35.479Z,102108.84
2023-01-27T19:08:03.766Z,102104.44
2023-01-27T19:10:33.857Z,102103.50
2023-01-27T19:13:02.700Z,102106.03
2023-01-27T19:15:39.738Z,102101.50
2023-01-27T19:18:29.563Z,102107.69
2023-01-27T19:20:56.875Z,102107.38
2023-01-27T19:23:24.181Z,102107.50
2023-01-27T19:25:54.087Z,102105.78
2023-01-27T19:28:25.042Z,102104.88
2023-01-27T19:30:52.311Z,102107.31
2023-01-27T19:33:22.881Z,102108.22
2023-01-27T19:35:57.030Z,102109.81
2023-01-27T19:38:28.454Z,102114.22
2023-01-27T19:40:56.022Z,102121.00
2023-01-27T19:43:23.536Z,102114.06
2023-01-27T19:45:50.971Z,102122.81
2023-01-27T19:48:20.476Z,102124.47
2023-01-27T19:50:48.230Z,102119.78
2023-01-27T19:53:18.670Z,102125.78
2023-01-27T19:55:47.348Z,102123.25
2023-01-27T19:58:22.057Z,102113.66
2023-01-27T20:00:49.325Z,102114.78
2023-01-27T20:03:16.743Z,102118.06
2023-01-27T20:05:44.104Z,102122.53
2023-01-27T20:08:19.570Z,102121.34
2023-01-27T20:10:47.045Z,102121.34
2023-01-27T20:13:17.125Z,102132.34
2023-01-27T20:15:44.655Z,102126.19
2023-01-27T20:18:15.163Z,102124.56
2023-01-27T20:20:44.301Z,102128.78
2023-01-27T20:23:15.245Z,102131.44
2023-01-27T20:25:42.629Z,102133.13
2023-01-27T20:28:10.757Z,102130.66
2023-01-27T20:30:38.837Z,102132.25
2023-01-27T20:33:06.191Z,102135.66
2023-01-27T20:35:33.706Z,102127.03
2023-01-27T20:38:03.338Z,102136.56
2023-01-27T20:40:31.147Z,102143.56
2023-01-27T20:43:00.785Z,102143.34
2023-01-27T20:45:28.224Z,102140.75
2023-01-27T20:47:56.173Z,102139.88
2023-01-27T20:50:26.038Z,102138.16
2023-01-27T20:52:54.028Z,102129.50
2023-01-27T20:55:21.376Z,102140.75
2023-01-27T20:57:49.002Z,102138.16
2023-01-27T21:00:20.872Z,102149.41
2023-01-27T21:02:49.663Z,102142.63
2023-01-27T21:05:17.223Z,102153.75
2023-01-27T21:07:44.798Z,102150.25
2023-01-27T21:10:12.263Z,102155.44
2023-01-27T21:12:39.855Z,102154.63
2023-01-27T21:15:09.812Z,102155.53
2023-01-27T21:17:37.440Z,102158.97
2023-01-27T21:20:05.166Z,102153.75
2023-01-27T21:22:32.921Z,102152.00
2023-01-27T21:25:00.185Z,102157.19
2023-01-27T21:27:27.480Z,102155.44
2023-01-27T21:29:54.792Z,102148.63
2023-01-27T21:32:22.022Z,102153.88
2023-01-27T21:34:49.275Z,102146.72
2023-01-27T21:37:16.640Z,102156.09
2023-01-27T21:39:43.917Z,102156.94
2023-01-27T21:42:17.279Z,102148.41
2023-01-27T21:45:03.107Z,102150.09
2023-01-27T21:47:30.386Z,102151.81
2023-01-27T21:50:00.590Z,102151.69
2023-01-27T21:52:43.277Z,102159.53
2023-01-27T21:55:23.400Z,102155.16
2023-01-27T21:57:51.693Z,102142.97
2023-01-27T22:00:21.520Z,102152.47
2023-01-27T22:03:00.046Z,102149.06
2023-01-27T22:05:28.227Z,102147.22
2023-01-27T22:07:55.526Z,102145.56
2023-01-27T22:10:25.557Z,102152.47
2023-01-27T22:12:58.249Z,102144.69
2023-01-27T22:15:28.659Z,102157.66
2023-01-27T22:17:59.370Z,102160.19
2023-01-27T22:20:27.544Z,102160.25
2023-01-27T22:22:55.269Z,102149.81
2023-01-27T22:25:22.582Z,102145.44
2023-01-27T22:27:55.721Z,102145.53
2023-01-27T22:30:24.253Z,102149.63
2023-01-27T22:32:51.595Z,102146.34
2023-01-27T22:35:19.506Z,102141.38
2023-01-27T22:37:49.187Z,102152.38
2023-01-27T22:40:16.757Z,102149.94
2023-01-27T22:42:43.984Z,102144.69
2023-01-27T22:45:11.731Z,102143.09
2023-01-27T22:47:39.010Z,102137.59
2023-01-27T22:50:06.600Z,102142.69
2023-01-27T22:52:36.674Z,102140.19
2023-01-27T22:55:08.972Z,102140.13
2023-01-27T22:57:36.403Z,102140.13
2023-01-27T23:00:05.777Z,102147.97
2023-01-27T23:02:33.049Z,102143.50
2023-01-27T23:05:00.345Z,102141.69
2023-01-27T23:07:27.823Z,102145.13
2023-01-27T23:09:55.067Z,102145.13
2023-01-27T23:12:22.383Z,102139.16
2023-01-27T23:14:49.571Z,102136.47
2023-01-27T23:17:16.824Z,102134.69
2023-01-27T23:19:44.069Z,102127.06
2023-01-27T23:22:11.841Z,102130.69
2023-01-27T23:24:39.323Z,102126.91
2023-01-27T23:27:06.543Z,102118.91
2023-01-27T23:29:33.809Z,102118.09
2023-01-27T23:32:01.246Z,102117.22
2023-01-27T23:34:28.641Z,102115.28
2023-01-27T23:36:55.864Z,102104.09
2023-01-27T23:39:23.232Z,102111.19
2023-01-27T23:41:50.432Z,102114.63
2023-01-27T23:44:17.753Z,102114.47
2023-01-27T23:46:44.959Z,102113.97
2023-01-27T23:49:12.742Z,102109.50
2023-01-27T23:51:40.016Z,102115.09
2023-01-27T23:54:07.293Z,102117.56
2023-01-27T23:56:34.597Z,102124.16
2023-01-27T23:59:02.056Z,102116.28
